sensor_id;sensor_type;location;lat;lon;timestamp;P1;durP1;ratioP1;P2;durP2;ratioP2
58978;SDS011;44763;50.464;30.612;2024-01-11T00:00:13;46.00;;;30.10;;
58978;SDS011;44763;50.464;30.612;2024-01-11T00:02:16;46.30;;;29.30;;
58978;SDS011;44763;50.464;30.612;2024-01-11T00:04:18;50.30;;;33.30;;
58978;SDS011;44763;50.464;30.612;2024-01-11T00:06:20;37.00;;;26.50;;
58978;SDS011;44763;50.464;30.612;2024-01-11T00:08:23;52.80;;;31.30;;
58978;SDS011;44763;50.464;30.612;2024-01-11T00:10:26;54.10;;;33.10;;
58978;SDS011;44763;50.464;30.612;2024-01-11T00:12:28;46.10;;;29.70;;
58978;SDS011;44763;50.464;30.612;2024-01-11T00:14:30;52.60;;;32.40;;
58978;SDS011;44763;50.464;30.612;2024-01-11T00:16:32;56.70;;;35.60;;
58978;SDS011;44763;50.464;30.612;2024-01-11T00:18:37;47.60;;;31.80;;
58978;SDS011;44763;50.464;30.612;2024-01-11T00:20:39;46.40;;;30.80;;
58978;SDS011;44763;50.464;30.612;2024-01-11T00:22:41;53.50;;;31.60;;
58978;SDS011;44763;50.464;30.612;2024-01-11T00:24:43;48.80;;;29.40;;
58978;SDS011;44763;50.464;30.612;2024-01-11T00:26:44;47.30;;;33.00;;
58978;SDS011;44763;50.464;30.612;2024-01-11T00:28:48;50.70;;;32.00;;
58978;SDS011;44763;50.464;30.612;2024-01-11T00:30:49;47.30;;;31.40;;
58978;SDS011;44763;50.464;30.612;2024-01-11T00:32:52;55.90;;;34.70;;
58978;SDS011;44763;50.464;30.612;2024-01-11T00:34:54;52.10;;;33.40;;
58978;SDS011;44763;50.464;30.612;2024-01-11T00:36:56;52.90;;;29.90;;
58978;SDS011;44763;50.464;30.612;2024-01-11T00:38:57;45.50;;;31.30;;
58978;SDS011;44763;50.464;30.612;2024-01-11T00:41:00;49.80;;;30.80;;
58978;SDS011;44763;50.464;30.612;2024-01-11T00:43:02;42.60;;;28.40;;
58978;SDS011;44763;50.464;30.612;2024-01-11T00:45:04;47.10;;;30.10;;
58978;SDS011;44763;50.464;30.612;2024-01-11T00:47:06;51.80;;;33.00;;
58978;SDS011;44763;50.464;30.612;2024-01-11T00:49:08;51.50;;;32.60;;
58978;SDS011;44763;50.464;30.612;2024-01-11T00:51:10;50.20;;;32.20;;
58978;SDS011;44763;50.464;30.612;2024-01-11T00:53:12;52.00;;;32.10;;
58978;SDS011;44763;50.464;30.612;2024-01-11T00:55:16;47.20;;;31.70;;
58978;SDS011;44763;50.464;30.612;2024-01-11T00:57:18;50.20;;;33.10;;
58978;SDS011;44763;50.464;30.612;2024-01-11T00:59:23;51.00;;;34.40;;
58978;SDS011;44763;50.464;30.612;2024-01-11T01:01:26;51.00;;;32.50;;
58978;SDS011;44763;50.464;30.612;2024-01-11T01:03:28;50.80;;;32.40;;
58978;SDS011;44763;50.464;30.612;2024-01-11T01:05:30;52.30;;;30.60;;
58978;SDS011;44763;50.464;30.612;2024-01-11T01:07:33;54.20;;;31.80;;
58978;SDS011;44763;50.464;30.612;2024-01-11T01:09:35;51.60;;;32.50;;
58978;SDS011;44763;50.464;30.612;2024-01-11T01:11:37;50.50;;;31.10;;
58978;SDS011;44763;50.464;30.612;2024-01-11T01:13:39;48.90;;;30.40;;
58978;SDS011;44763;50.464;30.612;2024-01-11T01:15:41;52.30;;;32.70;;
58978;SDS011;44763;50.464;30.612;2024-01-11T01:17:43;46.10;;;29.60;;
58978;SDS011;44763;50.464;30.612;2024-01-11T01:19:45;51.40;;;31.10;;
58978;SDS011;44763;50.464;30.612;2024-01-11T01:21:47;47.20;;;29.60;;
58978;SDS011;44763;50.464;30.612;2024-01-11T01:23:48;53.00;;;30.50;;
58978;SDS011;44763;50.464;30.612;2024-01-11T01:25:50;44.60;;;28.70;;
58978;SDS011;44763;50.464;30.612;2024-01-11T01:27:52;39.70;;;25.80;;
58978;SDS011;44763;50.464;30.612;2024-01-11T01:29:54;41.70;;;27.50;;
58978;SDS011;44763;50.464;30.612;2024-01-11T01:31:56;45.70;;;27.40;;
58978;SDS011;44763;50.464;30.612;2024-01-11T01:33:58;47.20;;;30.20;;
58978;SDS011;44763;50.464;30.612;2024-01-11T01:36:00;40.70;;;26.40;;
58978;SDS011;44763;50.464;30.612;2024-01-11T01:38:03;42.50;;;28.00;;
58978;SDS011;44763;50.464;30.612;2024-01-11T01:40:05;48.50;;;28.60;;
58978;SDS011;44763;50.464;30.612;2024-01-11T01:42:09;45.70;;;26.30;;
58978;SDS011;44763;50.464;30.612;2024-01-11T01:44:11;50.00;;;27.10;;
58978;SDS011;44763;50.464;30.612;2024-01-11T01:46:13;45.80;;;29.00;;
58978;SDS011;44763;50.464;30.612;2024-01-11T01:48:22;42.10;;;24.60;;
58978;SDS011;44763;50.464;30.612;2024-01-11T01:50:24;41.60;;;28.40;;
58978;SDS011;44763;50.464;30.612;2024-01-11T01:52:27;44.50;;;28.60;;
58978;SDS011;44763;50.464;30.612;2024-01-11T01:54:30;51.80;;;31.80;;
58978;SDS011;44763;50.464;30.612;2024-01-11T01:56:33;49.60;;;30.60;;
58978;SDS011;44763;50.464;30.612;2024-01-11T01:58:36;46.60;;;28.30;;
58978;SDS011;44763;50.464;30.612;2024-01-11T02:00:38;46.90;;;29.00;;
58978;SDS011;44763;50.464;30.612;2024-01-11T02:02:43;45.80;;;27.60;;
58978;SDS011;44763;50.464;30.612;2024-01-11T02:04:47;45.50;;;30.00;;
58978;SDS011;44763;50.464;30.612;2024-01-11T02:06:50;43.00;;;27.20;;
58978;SDS011;44763;50.464;30.612;2024-01-11T02:08:53;52.00;;;29.70;;
58978;SDS011;44763;50.464;30.612;2024-01-11T02:10:59;46.90;;;27.30;;
58978;SDS011;44763;50.464;30.612;2024-01-11T02:13:02;47.00;;;28.30;;
58978;SDS011;44763;50.464;30.612;2024-01-11T02:15:10;50.10;;;29.20;;
58978;SDS011;44763;50.464;30.612;2024-01-11T02:17:12;48.90;;;30.40;;
58978;SDS011;44763;50.464;30.612;2024-01-11T02:19:15;49.30;;;28.60;;
58978;SDS011;44763;50.464;30.612;2024-01-11T02:23:24;44.10;;;28.70;;
58978;SDS011;44763;50.464;30.612;2024-01-11T02:25:28;48.40;;;30.30;;
58978;SDS011;44763;50.464;30.612;2024-01-11T02:27:43;40.90;;;25.60;;
58978;SDS011;44763;50.464;30.612;2024-01-11T02:29:49;40.10;;;24.20;;
58978;SDS011;44763;50.464;30.612;2024-01-11T02:31:51;50.80;;;30.20;;
58978;SDS011;44763;50.464;30.612;2024-01-11T02:33:53;47.00;;;29.70;;
58978;SDS011;44763;50.464;30.612;2024-01-11T02:35:57;40.90;;;26.30;;
58978;SDS011;44763;50.464;30.612;2024-01-11T02:37:59;47.20;;;29.80;;
58978;SDS011;44763;50.464;30.612;2024-01-11T02:40:02;41.90;;;28.00;;
58978;SDS011;44763;50.464;30.612;2024-01-11T02:42:05;43.40;;;25.80;;
58978;SDS011;44763;50.464;30.612;2024-01-11T02:44:07;46.50;;;28.30;;
58978;SDS011;44763;50.464;30.612;2024-01-11T02:46:09;43.00;;;24.60;;
58978;SDS011;44763;50.464;30.612;2024-01-11T02:48:11;46.60;;;28.90;;
58978;SDS011;44763;50.464;30.612;2024-01-11T02:50:13;50.00;;;31.00;;
58978;SDS011;44763;50.464;30.612;2024-01-11T02:52:15;40.70;;;26.20;;
58978;SDS011;44763;50.464;30.612;2024-01-11T02:54:17;35.30;;;23.50;;
58978;SDS011;44763;50.464;30.612;2024-01-11T02:56:19;40.50;;;24.40;;
58978;SDS011;44763;50.464;30.612;2024-01-11T02:58:21;50.70;;;30.60;;
58978;SDS011;44763;50.464;30.612;2024-01-11T03:00:22;45.40;;;26.10;;
58978;SDS011;44763;50.464;30.612;2024-01-11T03:02:24;55.10;;;33.00;;
58978;SDS011;44763;50.464;30.612;2024-01-11T03:04:27;46.50;;;30.20;;
58978;SDS011;44763;50.464;30.612;2024-01-11T03:06:28;47.00;;;31.10;;
58978;SDS011;44763;50.464;30.612;2024-01-11T03:08:31;51.70;;;30.00;;
58978;SDS011;44763;50.464;30.612;2024-01-11T03:10:33;50.00;;;30.70;;
58978;SDS011;44763;50.464;30.612;2024-01-11T03:12:35;42.60;;;26.40;;
58978;SDS011;44763;50.464;30.612;2024-01-11T03:14:38;47.90;;;29.30;;
58978;SDS011;44763;50.464;30.612;2024-01-11T03:16:40;41.70;;;26.60;;
58978;SDS011;44763;50.464;30.612;2024-01-11T03:18:43;46.50;;;27.90;;
58978;SDS011;44763;50.464;30.612;2024-01-11T03:20:45;50.30;;;29.60;;
58978;SDS011;44763;50.464;30.612;2024-01-11T03:22:47;48.10;;;30.10;;
58978;SDS011;44763;50.464;30.612;2024-01-11T03:24:49;47.80;;;28.00;;
58978;SDS011;44763;50.464;30.612;2024-01-11T03:26:51;46.60;;;28.00;;
58978;SDS011;44763;50.464;30.612;2024-01-11T03:28:53;45.40;;;28.00;;
58978;SDS011;44763;50.464;30.612;2024-01-11T03:30:55;47.20;;;30.80;;
58978;SDS011;44763;50.464;30.612;2024-01-11T03:32:57;53.30;;;30.00;;
58978;SDS011;44763;50.464;30.612;2024-01-11T03:34:59;51.60;;;32.60;;
58978;SDS011;44763;50.464;30.612;2024-01-11T03:37:01;47.30;;;27.00;;
58978;SDS011;44763;50.464;30.612;2024-01-11T03:39:03;47.80;;;28.50;;
58978;SDS011;44763;50.464;30.612;2024-01-11T03:41:10;53.30;;;28.00;;
58978;SDS011;44763;50.464;30.612;2024-01-11T03:43:12;53.10;;;32.10;;
58978;SDS011;44763;50.464;30.612;2024-01-11T03:45:18;47.80;;;26.90;;
58978;SDS011;44763;50.464;30.612;2024-01-11T03:47:22;49.00;;;28.10;;
58978;SDS011;44763;50.464;30.612;2024-01-11T03:49:26;43.20;;;27.10;;
58978;SDS011;44763;50.464;30.612;2024-01-11T03:51:28;47.70;;;27.50;;
58978;SDS011;44763;50.464;30.612;2024-01-11T03:53:30;44.90;;;29.70;;
58978;SDS011;44763;50.464;30.612;2024-01-11T03:55:31;45.60;;;29.20;;
58978;SDS011;44763;50.464;30.612;2024-01-11T03:57:33;51.80;;;31.30;;
58978;SDS011;44763;50.464;30.612;2024-01-11T03:59:35;40.60;;;27.40;;
58978;SDS011;44763;50.464;30.612;2024-01-11T04:01:41;46.70;;;29.10;;
58978;SDS011;44763;50.464;30.612;2024-01-11T04:03:43;48.70;;;29.40;;
58978;SDS011;44763;50.464;30.612;2024-01-11T04:05:45;45.50;;;26.50;;
58978;SDS011;44763;50.464;30.612;2024-01-11T04:07:47;47.70;;;27.80;;
58978;SDS011;44763;50.464;30.612;2024-01-11T04:09:48;48.20;;;28.20;;
58978;SDS011;44763;50.464;30.612;2024-01-11T04:11:51;42.50;;;25.50;;
58978;SDS011;44763;50.464;30.612;2024-01-11T04:13:54;42.70;;;27.30;;
58978;SDS011;44763;50.464;30.612;2024-01-11T04:15:56;40.40;;;27.00;;
58978;SDS011;44763;50.464;30.612;2024-01-11T04:17:57;47.20;;;29.70;;
58978;SDS011;44763;50.464;30.612;2024-01-11T04:20:00;46.00;;;28.90;;
58978;SDS011;44763;50.464;30.612;2024-01-11T04:22:02;43.30;;;27.30;;
58978;SDS011;44763;50.464;30.612;2024-01-11T04:24:03;44.90;;;27.00;;
58978;SDS011;44763;50.464;30.612;2024-01-11T04:26:07;44.90;;;27.70;;
58978;SDS011;44763;50.464;30.612;2024-01-11T04:28:09;42.80;;;26.50;;
58978;SDS011;44763;50.464;30.612;2024-01-11T04:30:11;43.10;;;27.00;;
58978;SDS011;44763;50.464;30.612;2024-01-11T04:32:13;40.50;;;26.50;;
58978;SDS011;44763;50.464;30.612;2024-01-11T04:34:15;47.70;;;29.80;;
58978;SDS011;44763;50.464;30.612;2024-01-11T04:36:19;45.10;;;26.80;;
58978;SDS011;44763;50.464;30.612;2024-01-11T04:38:21;45.10;;;28.20;;
58978;SDS011;44763;50.464;30.612;2024-01-11T04:40:24;37.80;;;25.70;;
58978;SDS011;44763;50.464;30.612;2024-01-11T04:42:28;43.40;;;27.00;;
58978;SDS011;44763;50.464;30.612;2024-01-11T04:44:30;40.80;;;24.30;;
58978;SDS011;44763;50.464;30.612;2024-01-11T04:46:32;42.60;;;27.10;;
58978;SDS011;44763;50.464;30.612;2024-01-11T04:48:34;38.80;;;26.10;;
58978;SDS011;44763;50.464;30.612;2024-01-11T04:50:36;47.80;;;28.80;;
58978;SDS011;44763;50.464;30.612;2024-01-11T04:52:38;36.90;;;23.60;;
58978;SDS011;44763;50.464;30.612;2024-01-11T04:54:42;46.50;;;27.80;;
58978;SDS011;44763;50.464;30.612;2024-01-11T04:56:44;45.40;;;27.90;;
58978;SDS011;44763;50.464;30.612;2024-01-11T04:58:48;46.90;;;28.00;;
58978;SDS011;44763;50.464;30.612;2024-01-11T05:00:50;48.10;;;31.20;;
58978;SDS011;44763;50.464;30.612;2024-01-11T05:02:52;41.80;;;28.70;;
58978;SDS011;44763;50.464;30.612;2024-01-11T05:04:54;44.20;;;27.40;;
58978;SDS011;44763;50.464;30.612;2024-01-11T05:06:56;44.00;;;27.60;;
58978;SDS011;44763;50.464;30.612;2024-01-11T05:08:58;45.40;;;29.00;;
58978;SDS011;44763;50.464;30.612;2024-01-11T05:10:59;37.80;;;25.60;;
58978;SDS011;44763;50.464;30.612;2024-01-11T05:13:01;43.40;;;27.80;;
58978;SDS011;44763;50.464;30.612;2024-01-11T05:15:05;45.10;;;29.30;;
58978;SDS011;44763;50.464;30.612;2024-01-11T05:17:09;48.50;;;28.70;;
58978;SDS011;44763;50.464;30.612;2024-01-11T05:19:11;43.20;;;27.00;;
58978;SDS011;44763;50.464;30.612;2024-01-11T05:21:13;34.10;;;19.40;;
58978;SDS011;44763;50.464;30.612;2024-01-11T05:23:15;44.80;;;27.90;;
58978;SDS011;44763;50.464;30.612;2024-01-11T05:25:17;41.70;;;26.90;;
58978;SDS011;44763;50.464;30.612;2024-01-11T05:27:20;38.80;;;26.50;;
58978;SDS011;44763;50.464;30.612;2024-01-11T05:29:22;41.60;;;27.20;;
58978;SDS011;44763;50.464;30.612;2024-01-11T05:31:25;38.50;;;23.20;;
58978;SDS011;44763;50.464;30.612;2024-01-11T05:33:26;37.90;;;25.10;;
58978;SDS011;44763;50.464;30.612;2024-01-11T05:35:28;43.10;;;27.00;;
58978;SDS011;44763;50.464;30.612;2024-01-11T05:37:30;39.70;;;24.20;;
58978;SDS011;44763;50.464;30.612;2024-01-11T05:39:32;37.90;;;24.30;;
58978;SDS011;44763;50.464;30.612;2024-01-11T05:41:34;43.20;;;25.40;;
58978;SDS011;44763;50.464;30.612;2024-01-11T05:43:37;44.50;;;27.50;;
58978;SDS011;44763;50.464;30.612;2024-01-11T05:45:40;45.60;;;27.20;;
58978;SDS011;44763;50.464;30.612;2024-01-11T05:47:48;45.50;;;27.50;;
58978;SDS011;44763;50.464;30.612;2024-01-11T05:49:50;44.50;;;26.80;;
58978;SDS011;44763;50.464;30.612;2024-01-11T05:51:52;37.90;;;23.40;;
58978;SDS011;44763;50.464;30.612;2024-01-11T05:53:54;45.00;;;25.30;;
58978;SDS011;44763;50.464;30.612;2024-01-11T05:55:56;43.50;;;29.20;;
58978;SDS011;44763;50.464;30.612;2024-01-11T05:57:59;37.70;;;25.70;;
58978;SDS011;44763;50.464;30.612;2024-01-11T06:00:00;37.90;;;26.30;;
58978;SDS011;44763;50.464;30.612;2024-01-11T06:02:06;43.30;;;25.70;;
58978;SDS011;44763;50.464;30.612;2024-01-11T06:04:08;40.40;;;26.40;;
58978;SDS011;44763;50.464;30.612;2024-01-11T06:06:10;37.10;;;25.90;;
58978;SDS011;44763;50.464;30.612;2024-01-11T06:08:13;48.10;;;27.60;;
58978;SDS011;44763;50.464;30.612;2024-01-11T06:10:15;47.40;;;27.60;;
58978;SDS011;44763;50.464;30.612;2024-01-11T06:12:18;47.30;;;26.80;;
58978;SDS011;44763;50.464;30.612;2024-01-11T06:14:20;41.00;;;25.80;;
58978;SDS011;44763;50.464;30.612;2024-01-11T06:16:22;37.80;;;24.60;;
58978;SDS011;44763;50.464;30.612;2024-01-11T06:18:24;43.20;;;27.80;;
58978;SDS011;44763;50.464;30.612;2024-01-11T06:20:26;45.40;;;27.70;;
58978;SDS011;44763;50.464;30.612;2024-01-11T06:22:27;45.20;;;28.50;;
58978;SDS011;44763;50.464;30.612;2024-01-11T06:24:29;41.00;;;26.60;;
58978;SDS011;44763;50.464;30.612;2024-01-11T06:26:31;37.20;;;23.60;;
58978;SDS011;44763;50.464;30.612;2024-01-11T06:28:33;43.70;;;27.40;;
58978;SDS011;44763;50.464;30.612;2024-01-11T06:30:36;39.80;;;24.30;;
58978;SDS011;44763;50.464;30.612;2024-01-11T06:32:39;38.80;;;24.20;;
58978;SDS011;44763;50.464;30.612;2024-01-11T06:34:41;38.70;;;23.60;;
58978;SDS011;44763;50.464;30.612;2024-01-11T06:36:47;42.40;;;28.70;;
58978;SDS011;44763;50.464;30.612;2024-01-11T06:38:49;41.00;;;26.10;;
58978;SDS011;44763;50.464;30.612;2024-01-11T06:40:51;43.00;;;27.90;;
58978;SDS011;44763;50.464;30.612;2024-01-11T06:42:53;41.90;;;26.40;;
58978;SDS011;44763;50.464;30.612;2024-01-11T06:44:55;35.60;;;23.60;;
58978;SDS011;44763;50.464;30.612;2024-01-11T06:46:56;40.40;;;25.20;;
58978;SDS011;44763;50.464;30.612;2024-01-11T06:48:58;44.20;;;26.70;;
58978;SDS011;44763;50.464;30.612;2024-01-11T06:51:00;39.30;;;25.00;;
58978;SDS011;44763;50.464;30.612;2024-01-11T06:53:03;46.70;;;27.80;;
58978;SDS011;44763;50.464;30.612;2024-01-11T06:55:05;42.50;;;27.70;;
58978;SDS011;44763;50.464;30.612;2024-01-11T06:57:07;37.50;;;22.60;;
58978;SDS011;44763;50.464;30.612;2024-01-11T06:59:09;39.50;;;23.90;;
58978;SDS011;44763;50.464;30.612;2024-01-11T07:03:40;36.40;;;23.20;;
58978;SDS011;44763;50.464;30.612;2024-01-11T07:05:42;40.20;;;25.80;;
58978;SDS011;44763;50.464;30.612;2024-01-11T07:07:44;37.00;;;24.30;;
58978;SDS011;44763;50.464;30.612;2024-01-11T07:09:46;37.90;;;24.70;;
58978;SDS011;44763;50.464;30.612;2024-01-11T07:11:48;39.00;;;26.10;;
58978;SDS011;44763;50.464;30.612;2024-01-11T07:13:50;43.60;;;26.90;;
58978;SDS011;44763;50.464;30.612;2024-01-11T07:15:52;36.60;;;25.20;;
58978;SDS011;44763;50.464;30.612;2024-01-11T07:17:54;38.50;;;25.00;;
58978;SDS011;44763;50.464;30.612;2024-01-11T07:19:56;33.30;;;21.40;;
58978;SDS011;44763;50.464;30.612;2024-01-11T07:21:58;40.50;;;25.30;;
58978;SDS011;44763;50.464;30.612;2024-01-11T07:24:02;43.70;;;26.40;;
58978;SDS011;44763;50.464;30.612;2024-01-11T07:26:05;37.10;;;23.00;;
58978;SDS011;44763;50.464;30.612;2024-01-11T07:28:09;41.30;;;24.30;;
58978;SDS011;44763;50.464;30.612;2024-01-11T07:30:12;36.60;;;22.70;;
58978;SDS011;44763;50.464;30.612;2024-01-11T07:32:14;35.20;;;24.80;;
58978;SDS011;44763;50.464;30.612;2024-01-11T07:34:16;36.50;;;24.20;;
58978;SDS011;44763;50.464;30.612;2024-01-11T07:36:19;33.60;;;22.60;;
58978;SDS011;44763;50.464;30.612;2024-01-11T07:38:21;41.20;;;27.20;;
58978;SDS011;44763;50.464;30.612;2024-01-11T07:40:23;39.40;;;24.50;;
58978;SDS011;44763;50.464;30.612;2024-01-11T07:42:25;37.60;;;23.40;;
58978;SDS011;44763;50.464;30.612;2024-01-11T07:44:27;39.60;;;26.80;;
58978;SDS011;44763;50.464;30.612;2024-01-11T07:46:29;40.20;;;26.60;;
58978;SDS011;44763;50.464;30.612;2024-01-11T07:48:42;33.40;;;20.30;;
58978;SDS011;44763;50.464;30.612;2024-01-11T07:50:45;39.10;;;28.00;;
58978;SDS011;44763;50.464;30.612;2024-01-11T07:52:48;38.70;;;26.60;;
58978;SDS011;44763;50.464;30.612;2024-01-11T07:54:50;45.60;;;27.80;;
58978;SDS011;44763;50.464;30.612;2024-01-11T07:56:52;46.80;;;29.30;;
58978;SDS011;44763;50.464;30.612;2024-01-11T07:58:54;44.40;;;28.00;;
58978;SDS011;44763;50.464;30.612;2024-01-11T08:00:57;44.80;;;25.60;;
58978;SDS011;44763;50.464;30.612;2024-01-11T08:02:59;48.70;;;30.70;;
58978;SDS011;44763;50.464;30.612;2024-01-11T08:05:02;39.80;;;25.90;;
58978;SDS011;44763;50.464;30.612;2024-01-11T08:07:05;43.50;;;27.20;;
58978;SDS011;44763;50.464;30.612;2024-01-11T08:09:07;46.40;;;26.50;;
58978;SDS011;44763;50.464;30.612;2024-01-11T08:11:12;40.60;;;26.00;;
58978;SDS011;44763;50.464;30.612;2024-01-11T08:13:14;44.20;;;26.90;;
58978;SDS011;44763;50.464;30.612;2024-01-11T08:15:16;35.30;;;23.80;;
58978;SDS011;44763;50.464;30.612;2024-01-11T08:17:19;41.50;;;25.50;;
58978;SDS011;44763;50.464;30.612;2024-01-11T08:19:21;41.80;;;26.90;;
58978;SDS011;44763;50.464;30.612;2024-01-11T08:21:23;47.30;;;30.40;;
58978;SDS011;44763;50.464;30.612;2024-01-11T08:23:26;40.70;;;26.70;;
58978;SDS011;44763;50.464;30.612;2024-01-11T08:25:28;43.10;;;26.00;;
58978;SDS011;44763;50.464;30.612;2024-01-11T08:27:31;44.50;;;27.40;;
58978;SDS011;44763;50.464;30.612;2024-01-11T08:29:34;44.90;;;27.20;;
58978;SDS011;44763;50.464;30.612;2024-01-11T08:31:36;43.10;;;25.40;;
58978;SDS011;44763;50.464;30.612;2024-01-11T08:33:41;44.60;;;27.10;;
58978;SDS011;44763;50.464;30.612;2024-01-11T08:35:43;42.30;;;28.30;;
58978;SDS011;44763;50.464;30.612;2024-01-11T08:37:45;38.60;;;24.20;;
58978;SDS011;44763;50.464;30.612;2024-01-11T08:39:46;44.00;;;29.00;;
58978;SDS011;44763;50.464;30.612;2024-01-11T08:41:48;46.30;;;29.80;;
58978;SDS011;44763;50.464;30.612;2024-01-11T08:43:52;50.10;;;32.00;;
58978;SDS011;44763;50.464;30.612;2024-01-11T08:45:56;45.90;;;28.90;;
58978;SDS011;44763;50.464;30.612;2024-01-11T08:47:58;42.60;;;26.70;;
58978;SDS011;44763;50.464;30.612;2024-01-11T08:50:01;38.40;;;26.90;;
58978;SDS011;44763;50.464;30.612;2024-01-11T08:52:03;35.00;;;22.70;;
58978;SDS011;44763;50.464;30.612;2024-01-11T08:54:05;37.00;;;24.80;;
58978;SDS011;44763;50.464;30.612;2024-01-11T08:56:10;44.60;;;27.60;;
58978;SDS011;44763;50.464;30.612;2024-01-11T08:58:12;39.20;;;24.90;;
58978;SDS011;44763;50.464;30.612;2024-01-11T09:00:14;43.20;;;27.80;;
58978;SDS011;44763;50.464;30.612;2024-01-11T09:02:20;46.30;;;27.30;;
58978;SDS011;44763;50.464;30.612;2024-01-11T09:04:26;38.50;;;27.00;;
58978;SDS011;44763;50.464;30.612;2024-01-11T09:06:31;40.50;;;25.70;;
58978;SDS011;44763;50.464;30.612;2024-01-11T09:08:33;42.00;;;27.50;;
58978;SDS011;44763;50.464;30.612;2024-01-11T09:10:36;40.30;;;24.20;;
58978;SDS011;44763;50.464;30.612;2024-01-11T09:12:38;41.20;;;24.30;;
58978;SDS011;44763;50.464;30.612;2024-01-11T09:14:40;43.20;;;26.80;;
58978;SDS011;44763;50.464;30.612;2024-01-11T09:16:42;43.60;;;27.90;;
58978;SDS011;44763;50.464;30.612;2024-01-11T09:18:46;40.00;;;26.50;;
58978;SDS011;44763;50.464;30.612;2024-01-11T09:20:48;42.80;;;27.20;;
58978;SDS011;44763;50.464;30.612;2024-01-11T09:22:50;44.50;;;26.80;;
58978;SDS011;44763;50.464;30.612;2024-01-11T09:24:52;42.40;;;27.00;;
58978;SDS011;44763;50.464;30.612;2024-01-11T09:26:54;41.90;;;26.20;;
58978;SDS011;44763;50.464;30.612;2024-01-11T09:28:56;40.40;;;26.30;;
58978;SDS011;44763;50.464;30.612;2024-01-11T09:31:00;42.10;;;28.00;;
58978;SDS011;44763;50.464;30.612;2024-01-11T09:33:04;34.70;;;22.80;;
58978;SDS011;44763;50.464;30.612;2024-01-11T09:35:06;38.70;;;25.00;;
58978;SDS011;44763;50.464;30.612;2024-01-11T09:37:11;42.50;;;26.70;;
58978;SDS011;44763;50.464;30.612;2024-01-11T09:39:13;38.50;;;26.60;;
58978;SDS011;44763;50.464;30.612;2024-01-11T09:41:15;39.20;;;25.20;;
58978;SDS011;44763;50.464;30.612;2024-01-11T09:43:17;37.30;;;24.10;;
58978;SDS011;44763;50.464;30.612;2024-01-11T09:45:19;34.60;;;23.20;;
58978;SDS011;44763;50.464;30.612;2024-01-11T09:47:21;35.10;;;23.90;;
58978;SDS011;44763;50.464;30.612;2024-01-11T09:49:25;36.80;;;24.80;;
58978;SDS011;44763;50.464;30.612;2024-01-11T09:51:27;38.90;;;25.40;;
58978;SDS011;44763;50.464;30.612;2024-01-11T09:53:31;41.30;;;25.70;;
58978;SDS011;44763;50.464;30.612;2024-01-11T09:55:34;40.40;;;25.20;;
58978;SDS011;44763;50.464;30.612;2024-01-11T09:57:38;37.90;;;24.70;;
58978;SDS011;44763;50.464;30.612;2024-01-11T09:59:44;47.70;;;27.00;;
58978;SDS011;44763;50.464;30.612;2024-01-11T10:01:46;39.00;;;26.30;;
58978;SDS011;44763;50.464;30.612;2024-01-11T10:03:49;43.60;;;26.70;;
58978;SDS011;44763;50.464;30.612;2024-01-11T10:05:53;41.60;;;26.70;;
58978;SDS011;44763;50.464;30.612;2024-01-11T10:07:58;45.30;;;25.60;;
58978;SDS011;44763;50.464;30.612;2024-01-11T10:10:00;34.10;;;23.90;;
58978;SDS011;44763;50.464;30.612;2024-01-11T10:12:02;36.00;;;23.90;;
58978;SDS011;44763;50.464;30.612;2024-01-11T10:14:05;41.00;;;26.40;;
58978;SDS011;44763;50.464;30.612;2024-01-11T10:16:07;41.70;;;27.40;;
58978;SDS011;44763;50.464;30.612;2024-01-11T10:18:11;39.70;;;26.00;;
58978;SDS011;44763;50.464;30.612;2024-01-11T10:20:15;36.90;;;24.10;;
58978;SDS011;44763;50.464;30.612;2024-01-11T10:22:18;37.50;;;24.00;;
58978;SDS011;44763;50.464;30.612;2024-01-11T10:24:25;38.40;;;22.00;;
58978;SDS011;44763;50.464;30.612;2024-01-11T10:26:30;36.30;;;22.70;;
58978;SDS011;44763;50.464;30.612;2024-01-11T10:28:32;35.00;;;21.70;;
58978;SDS011;44763;50.464;30.612;2024-01-11T10:30:34;33.80;;;21.50;;
58978;SDS011;44763;50.464;30.612;2024-01-11T10:32:37;34.20;;;23.00;;
58978;SDS011;44763;50.464;30.612;2024-01-11T10:34:40;41.00;;;26.50;;
58978;SDS011;44763;50.464;30.612;2024-01-11T10:36:43;36.50;;;24.70;;
58978;SDS011;44763;50.464;30.612;2024-01-11T10:38:45;35.50;;;24.30;;
58978;SDS011;44763;50.464;30.612;2024-01-11T10:42:53;41.40;;;23.10;;
58978;SDS011;44763;50.464;30.612;2024-01-11T10:45:02;38.30;;;24.80;;
58978;SDS011;44763;50.464;30.612;2024-01-11T10:47:06;35.50;;;22.90;;
58978;SDS011;44763;50.464;30.612;2024-01-11T10:49:10;38.50;;;22.60;;
58978;SDS011;44763;50.464;30.612;2024-01-11T10:51:15;38.10;;;24.40;;
58978;SDS011;44763;50.464;30.612;2024-01-11T10:55:49;36.60;;;22.90;;
58978;SDS011;44763;50.464;30.612;2024-01-11T10:57:52;40.10;;;26.20;;
58978;SDS011;44763;50.464;30.612;2024-01-11T10:59:56;39.40;;;24.90;;
58978;SDS011;44763;50.464;30.612;2024-01-11T11:02:04;35.80;;;22.20;;
58978;SDS011;44763;50.464;30.612;2024-01-11T11:04:08;35.80;;;23.00;;
58978;SDS011;44763;50.464;30.612;2024-01-11T11:06:11;39.90;;;24.50;;
58978;SDS011;44763;50.464;30.612;2024-01-11T11:08:15;34.30;;;22.60;;
58978;SDS011;44763;50.464;30.612;2024-01-11T11:10:19;41.00;;;25.80;;
58978;SDS011;44763;50.464;30.612;2024-01-11T11:12:23;39.50;;;23.80;;
58978;SDS011;44763;50.464;30.612;2024-01-11T11:14:27;37.80;;;24.30;;
58978;SDS011;44763;50.464;30.612;2024-01-11T11:16:30;43.70;;;27.10;;
58978;SDS011;44763;50.464;30.612;2024-01-11T11:18:32;43.90;;;26.30;;
58978;SDS011;44763;50.464;30.612;2024-01-11T11:22:40;39.60;;;24.90;;
58978;SDS011;44763;50.464;30.612;2024-01-11T11:24:42;35.90;;;21.50;;
58978;SDS011;44763;50.464;30.612;2024-01-11T11:26:44;36.00;;;21.50;;
58978;SDS011;44763;50.464;30.612;2024-01-11T11:28:46;44.90;;;25.90;;
58978;SDS011;44763;50.464;30.612;2024-01-11T11:30:51;36.50;;;23.80;;
58978;SDS011;44763;50.464;30.612;2024-01-11T11:34:57;32.10;;;21.70;;
58978;SDS011;44763;50.464;30.612;2024-01-11T11:37:02;37.50;;;25.40;;
58978;SDS011;44763;50.464;30.612;2024-01-11T11:39:05;45.00;;;26.30;;
58978;SDS011;44763;50.464;30.612;2024-01-11T11:41:07;33.00;;;20.80;;
58978;SDS011;44763;50.464;30.612;2024-01-11T11:43:09;34.20;;;22.80;;
58978;SDS011;44763;50.464;30.612;2024-01-11T11:45:11;40.70;;;24.70;;
58978;SDS011;44763;50.464;30.612;2024-01-11T11:47:18;33.10;;;20.20;;
58978;SDS011;44763;50.464;30.612;2024-01-11T11:49:47;39.30;;;24.10;;
58978;SDS011;44763;50.464;30.612;2024-01-11T11:52:03;37.20;;;23.00;;
58978;SDS011;44763;50.464;30.612;2024-01-11T11:54:05;37.00;;;24.70;;
58978;SDS011;44763;50.464;30.612;2024-01-11T11:56:08;36.00;;;24.10;;
58978;SDS011;44763;50.464;30.612;2024-01-11T11:58:12;34.50;;;22.10;;
58978;SDS011;44763;50.464;30.612;2024-01-11T12:00:15;35.70;;;21.50;;